Time;durP1;ratioP1;P1;durP2;ratioP2;P2;SDS_P1;SDS_P2;PMS_P1;PMS_P2;Temp;Humidity;BMP_temperature;BMP_pressure;BME280_temperature;BME280_humidity;BME280_pressure;Samples;Min_cycle;Max_cycle;Signal;HPM_P1;HPM_P2
2021/06/03 00:00:01;;;;;;;7.00;1.95;;;;;;;15.04;80.28;100406.74;1788551;80;21988;-72
2021/06/03 00:02:29;;;;;;;3.20;1.72;;;;;;;15.05;80.21;100402.66;1788476;80;20992;-72
2021/06/03 00:04:56;;;;;;;4.00;1.42;;;;;;;15.07;80.09;100405.16;1785590;80;21423;-71
2021/06/03 00:07:23;;;;;;;2.60;1.37;;;;;;;15.08;80.13;100404.21;1785472;79;20945;-71
2021/06/03 00:09:50;;;;;;;2.50;1.62;;;;;;;15.08;80.03;100397.12;1786181;80;20937;-71
2021/06/03 00:12:18;;;;;;;4.15;1.67;;;;;;;15.10;79.84;100389.08;1786714;79;21090;-73
2021/06/03 00:14:46;;;;;;;4.00;1.80;;;;;;;15.10;79.71;100386.44;1786487;79;20964;-71
2021/06/03 00:17:15;;;;;;;2.47;1.40;;;;;;;15.08;79.49;100381.76;1786052;79;20842;-71
2021/06/03 00:19:42;;;;;;;3.22;1.50;;;;;;;15.06;79.38;100383.20;1786787;80;20941;-71
2021/06/03 00:22:11;;;;;;;4.20;1.67;;;;;;;15.06;79.38;100377.09;1787015;80;20944;-70
2021/06/03 00:24:38;;;;;;;2.37;1.07;;;;;;;15.02;79.13;100369.89;1785867;80;21564;-73
2021/06/03 00:27:05;;;;;;;3.10;1.55;;;;;;;14.99;79.09;100365.36;1785895;80;20932;-72
2021/06/03 00:29:32;;;;;;;4.55;1.42;;;;;;;14.96;79.00;100371.70;1785749;80;20890;-70
2021/06/03 00:31:59;;;;;;;5.33;1.55;;;;;;;14.95;78.97;100370.53;1785865;79;20933;-72
2021/06/03 00:34:26;;;;;;;3.33;1.52;;;;;;;14.91;78.76;100370.77;1785562;80;21012;-71
2021/06/03 00:36:53;;;;;;;2.47;1.10;;;;;;;14.89;78.73;100366.58;1785650;80;21488;-71
2021/06/03 00:39:21;;;;;;;2.27;1.00;;;;;;;14.86;78.64;100364.20;1785535;80;20973;-70
2021/06/03 00:41:48;;;;;;;5.28;1.70;;;;;;;14.82;78.29;100364.09;1785481;80;20913;-74
2021/06/03 00:44:15;;;;;;;5.35;1.12;;;;;;;14.74;78.19;100366.52;1785836;79;20882;-71
2021/06/03 00:46:42;;;;;;;5.53;1.40;;;;;;;14.67;78.43;100364.40;1785921;79;21386;-74
2021/06/03 00:49:10;;;;;;;3.52;1.22;;;;;;;14.62;78.24;100358.63;1785859;80;21157;-74
2021/06/03 00:51:37;;;;;;;3.72;1.05;;;;;;;14.53;78.38;100351.44;1785543;80;20952;-70
2021/06/03 00:54:05;;;;;;;2.10;1.25;;;;;;;14.43;78.62;100355.31;1785490;80;20846;-72
2021/06/03 00:56:35;;;;;;;6.60;1.22;;;;;;;14.35;78.81;100354.24;1785565;79;20854;-72
2021/06/03 00:59:04;;;;;;;4.17;1.35;;;;;;;14.30;79.00;100355.45;1785609;80;20885;-71
2021/06/03 01:01:31;;;;;;;2.67;1.07;;;;;;;14.26;79.23;100355.81;1785504;79;21137;-70
2021/06/03 01:04:02;;;;;;;2.40;2.08;;;;;;;14.20;79.29;100353.17;1786861;80;20941;-72
2021/06/03 01:06:29;;;;;;;4.00;1.20;;;;;;;14.14;79.53;100348.86;1788560;80;20925;-74
2021/06/03 01:09:10;;;;;;;3.45;1.60;;;;;;;14.09;79.63;100352.73;1788617;80;20877;-74
2021/06/03 01:11:43;;;;;;;3.22;1.62;;;;;;;14.04;79.74;100346.95;1763017;80;20952;-72
2021/06/03 01:14:24;;;;;;;4.03;1.57;;;;;;;14.02;79.62;100344.09;1788985;80;21102;-73
2021/06/03 01:16:56;;;;;;;5.05;1.40;;;;;;;13.92;79.67;100360.26;1788465;80;20889;-73
2021/06/03 01:19:36;;;;;;;3.83;1.82;;;;;;;13.79;80.01;100347.22;1762547;80;20925;-71
2021/06/03 01:22:12;;;;;;;2.58;1.22;;;;;;;13.75;80.16;100349.24;1788623;80;21522;-75
2021/06/03 01:24:47;;;;;;;2.17;1.47;;;;;;;13.68;80.29;100341.47;1788609;80;20901;-74
2021/06/03 01:27:27;;;;;;;5.35;1.60;;;;;;;13.60;80.62;100344.67;1788546;80;21112;-72
2021/06/03 01:30:18;;;;;;;3.83;1.45;;;;;;;13.57;80.83;100343.61;1788464;80;20917;-73
2021/06/03 01:33:01;;;;;;;8.90;2.05;;;;;;;13.55;80.83;100342.88;1788519;80;20901;-72
2021/06/03 01:35:35;;;;;;;6.67;2.35;;;;;;;13.48;80.89;100338.56;1700243;84;21003;-73
2021/06/03 01:38:05;;;;;;;1.47;1.32;;;;;;;13.44;81.25;100337.59;1730523;82;21416;-70
2021/06/03 01:40:32;;;;;;;2.92;1.07;;;;;;;13.41;81.17;100345.27;1730220;83;21138;-73
2021/06/03 01:43:00;;;;;;;2.72;1.60;;;;;;;13.33;81.43;100347.63;1730095;83;21039;-73
2021/06/03 01:45:29;;;;;;;4.67;1.75;;;;;;;13.23;81.75;100341.38;1730134;83;21495;-73
2021/06/03 01:47:56;;;;;;;2.10;1.35;;;;;;;13.18;82.12;100350.07;1706280;83;21002;-73
2021/06/03 01:50:25;;;;;;;4.08;1.62;;;;;;;13.13;82.34;100350.42;1730175;82;20914;-73
2021/06/03 01:52:54;;;;;;;5.50;1.80;;;;;;;13.08;82.46;100344.67;1730375;82;21099;-72
2021/06/03 01:55:23;;;;;;;2.50;1.40;;;;;;;13.03;82.52;100351.59;1730181;83;20895;-71
2021/06/03 01:57:52;;;;;;;3.52;1.20;;;;;;;12.98;82.75;100344.53;1730061;83;20876;-73
2021/06/03 02:00:24;;;;;;;2.17;1.05;;;;;;;13.02;83.09;100345.13;1730027;83;21029;-72
2021/06/03 02:02:54;;;;;;;2.22;1.30;;;;;;;13.00;82.59;100349.17;1730201;82;20943;-72
2021/06/03 02:05:24;;;;;;;3.87;1.30;;;;;;;12.95;82.83;100339.95;1716268;83;20973;-73
2021/06/03 02:07:53;;;;;;;4.90;1.05;;;;;;;12.94;83.03;100339.13;1715666;83;20904;-71
2021/06/03 02:10:21;;;;;;;2.35;1.37;;;;;;;12.94;82.94;100343.53;1715616;83;20924;-70
2021/06/03 02:13:20;;;;;;;6.55;2.58;;;;;;;12.93;83.05;100337.43;1745463;81;21414;-71
2021/06/03 02:15:53;;;;;;;3.80;1.15;;;;;;;12.92;83.01;100346.30;1731502;83;20921;-70
2021/06/03 02:18:21;;;;;;;2.70;1.12;;;;;;;12.88;82.89;100332.99;1762875;81;21118;-71
2021/06/03 02:20:49;;;;;;;5.47;1.47;;;;;;;12.86;83.10;100334.90;1731283;83;20917;-70
2021/06/03 02:23:18;;;;;;;6.15;1.27;;;;;;;12.84;83.02;100336.80;1713499;81;20968;-69
2021/06/03 02:25:45;;;;;;;5.00;1.47;;;;;;;12.83;83.12;100333.82;1731419;83;20934;-71
2021/06/03 02:28:15;;;;;;;2.10;1.62;;;;;;;12.82;83.28;100339.53;1762824;80;20937;-71
2021/06/03 02:30:42;;;;;;;3.80;1.40;;;;;;;12.82;83.35;100330.81;1704271;83;21799;-71
2021/06/03 02:33:11;;;;;;;2.52;1.30;;;;;;;12.86;83.67;100330.95;1762659;80;21494;-70
2021/06/03 02:35:39;;;;;;;2.85;1.00;;;;;;;12.89;83.46;100332.51;1731549;81;20984;-70
2021/06/03 02:38:06;;;;;;;5.25;1.20;;;;;;;12.91;83.50;100330.61;1731331;83;21068;-71
2021/06/03 02:40:33;;;;;;;1.22;1.10;;;;;;;12.94;83.57;100334.31;1762817;80;21340;-71
2021/06/03 02:43:01;;;;;;;1.27;1.17;;;;;;;12.99;83.69;100326.45;1762828;81;21486;-71
2021/06/03 02:45:30;;;;;;;2.12;1.00;;;;;;;13.02;83.27;100324.89;1731433;83;21502;-72
2021/06/03 02:47:58;;;;;;;2.52;1.20;;;;;;;13.01;83.11;100323.71;1762725;80;20930;-71
2021/06/03 02:50:27;;;;;;;3.35;1.42;;;;;;;13.00;83.06;100328.11;1733099;83;20960;-73
2021/06/03 02:52:57;;;;;;;1.62;1.15;;;;;;;12.95;83.04;100321.05;1764972;81;21514;-71
2021/06/03 02:55:24;;;;;;;5.17;0.93;;;;;;;12.93;83.19;100326.91;1733901;81;21174;-70
2021/06/03 02:57:54;;;;;;;3.90;1.98;;;;;;;12.92;83.10;100321.29;1763559;80;20929;-72
2021/06/03 03:00:29;;;;;;;5.45;1.67;;;;;;;12.92;83.24;100312.08;1764452;81;20890;-70
2021/06/03 03:02:56;;;;;;;3.50;1.12;;;;;;;12.91;83.25;100316.97;1705403;83;20917;-71
2021/06/03 03:05:24;;;;;;;3.22;1.07;;;;;;;12.95;83.26;100321.05;1781648;80;20925;-73
2021/06/03 03:07:51;;;;;;;1.60;0.90;;;;;;;12.99;83.10;100315.92;1785413;80;21130;-71
2021/06/03 03:10:28;;;;;;;2.47;1.27;;;;;;;13.00;82.84;100315.44;1785313;80;20850;-72
2021/06/03 03:12:56;;;;;;;2.85;1.20;;;;;;;12.98;82.98;100314.71;1784447;80;20925;-74
2021/06/03 03:15:24;;;;;;;1.20;1.10;;;;;;;12.99;82.91;100312.45;1785365;80;20862;-70
2021/06/03 03:19:04;;;;;;;3.40;1.12;;;;;;;13.06;82.74;100303.14;1884319;75;23003;-70
2021/06/03 03:21:31;;;;;;;3.25;1.10;;;;;;;13.04;82.78;100308.99;1860871;77;21308;-71
2021/06/03 03:23:58;;;;;;;0.93;0.80;;;;;;;13.03;82.55;100308.16;1860876;77;21096;-74
2021/06/03 03:26:26;;;;;;;1.65;1.45;;;;;;;13.00;82.38;100302.28;1860757;77;20994;-71
2021/06/03 03:28:53;;;;;;;1.17;0.90;;;;;;;12.96;82.56;100299.05;1829966;77;20860;-72
2021/06/03 03:31:20;;;;;;;1.07;0.95;;;;;;;12.92;82.37;100292.34;1860691;77;20919;-70
2021/06/03 03:33:48;;;;;;;1.87;0.78;;;;;;;12.86;82.55;100305.47;1860747;77;21555;-71
2021/06/03 03:36:16;;;;;;;2.37;0.80;;;;;;;12.81;82.82;100287.87;1860789;77;21099;-70
2021/06/03 03:38:46;;;;;;;0.90;0.68;;;;;;;12.83;82.90;100302.24;1860617;76;20958;-72
2021/06/03 03:41:13;;;;;;;1.40;0.90;;;;;;;12.80;83.10;100295.88;1861131;77;20872;-70
2021/06/03 03:43:40;;;;;;;3.17;1.02;;;;;;;12.84;83.29;100300.79;1860765;76;20915;-71
2021/06/03 03:46:08;;;;;;;4.17;1.10;;;;;;;12.84;82.92;100296.84;1860817;77;21330;-70
2021/06/03 03:48:37;;;;;;;2.62;1.15;;;;;;;12.84;83.07;100299.47;1860937;76;21800;-73
2021/06/03 03:51:04;;;;;;;2.37;1.07;;;;;;;12.83;82.98;100299.13;1860681;77;20950;-70
2021/06/03 03:53:33;;;;;;;1.77;1.10;;;;;;;12.82;82.94;100295.28;1859820;77;21317;-71
2021/06/03 03:56:02;;;;;;;3.40;1.30;;;;;;;12.80;83.13;100287.98;1860698;77;20914;-72
2021/06/03 03:58:31;;;;;;;2.85;1.47;;;;;;;12.80;82.96;100299.82;1860525;77;21277;-70
2021/06/03 04:01:00;;;;;;;2.62;1.70;;;;;;;12.75;83.00;100298.85;1860645;77;21444;-70
2021/06/03 04:03:28;;;;;;;2.02;1.27;;;;;;;12.74;83.10;100303.77;1860638;76;20911;-69
2021/06/03 04:05:56;;;;;;;3.15;1.30;;;;;;;12.73;83.20;100302.55;1860290;77;20911;-70
2021/06/03 04:08:26;;;;;;;5.72;1.35;;;;;;;12.75;83.22;100290.12;1860693;77;21018;-71
2021/06/03 04:10:53;;;;;;;2.00;1.07;;;;;;;12.78;83.31;100297.33;1861168;77;20840;-71
2021/06/03 04:13:24;;;;;;;4.03;1.60;;;;;;;12.81;83.31;100301.03;1860893;77;20891;-72
2021/06/03 04:15:55;;;;;;;3.05;1.07;;;;;;;12.83;83.08;100300.92;1860332;77;21309;-75
2021/06/03 04:18:22;;;;;;;3.08;1.30;;;;;;;12.86;83.02;100310.73;1860538;77;20867;-71
2021/06/03 04:20:50;;;;;;;1.95;1.52;;;;;;;12.85;82.89;100303.80;1860989;77;20898;-71
2021/06/03 04:23:17;;;;;;;3.65;1.10;;;;;;;12.83;82.92;100304.87;1860795;76;20824;-70
2021/06/03 04:25:46;;;;;;;2.35;1.45;;;;;;;12.81;83.05;100304.98;1860790;77;21113;-70
2021/06/03 04:28:13;;;;;;;3.50;1.17;;;;;;;12.82;83.11;100305.81;1860702;76;20895;-70
2021/06/03 04:30:42;;;;;;;2.80;1.30;;;;;;;12.86;83.06;100308.58;1860443;77;20863;-72
2021/06/03 04:33:10;;;;;;;3.15;1.25;;;;;;;12.90;83.11;100298.19;1860116;77;21401;-70
2021/06/03 04:35:36;;;;;;;2.35;1.98;;;;;;;12.93;82.80;100305.84;1860399;77;20907;-72
2021/06/03 04:38:04;;;;;;;3.08;1.45;;;;;;;12.92;82.74;100303.34;1860101;77;21121;-70
2021/06/03 04:40:31;;;;;;;3.37;2.75;;;;;;;12.91;82.99;100305.60;1859934;76;20832;-72
2021/06/03 04:43:03;;;;;;;4.10;1.30;;;;;;;12.89;82.98;100305.70;1860034;76;21472;-73
2021/06/03 04:45:34;;;;;;;1.10;0.98;;;;;;;12.84;82.86;100303.42;1860112;77;20915;-70
2021/06/03 04:47:59;;;;;;;6.03;1.60;;;;;;;12.81;83.03;100306.78;1860170;77;20864;-70
2021/06/03 04:50:25;;;;;;;1.57;0.80;;;;;;;12.79;83.26;100305.56;1860076;77;21112;-70
2021/06/03 04:52:53;;;;;;;2.20;1.15;;;;;;;12.79;83.31;100303.42;1859974;76;20867;-70
2021/06/03 04:55:22;;;;;;;2.75;1.30;;;;;;;12.79;83.37;100303.42;1860140;76;20856;-70
2021/06/03 04:57:50;;;;;;;3.47;1.05;;;;;;;12.81;83.52;100305.46;1860312;77;21085;-71
2021/06/03 05:00:27;;;;;;;1.20;0.90;;;;;;;12.84;83.49;100299.95;1860133;76;20919;-71
2021/06/03 05:02:56;;;;;;;1.00;0.80;;;;;;;12.88;83.34;100300.09;1859856;76;20982;-74
2021/06/03 05:05:23;;;;;;;1.70;1.25;;;;;;;12.86;83.33;100304.15;1860090;77;20907;-71
2021/06/03 05:07:50;;;;;;;1.45;0.98;;;;;;;12.89;83.44;100301.77;1860514;77;20868;-72
2021/06/03 05:10:18;;;;;;;1.10;0.88;;;;;;;12.90;83.40;100297.36;1860258;76;20950;-72
2021/06/03 05:12:45;;;;;;;1.07;0.88;;;;;;;12.93;83.60;100298.44;1860318;77;20902;-72
2021/06/03 05:15:14;;;;;;;3.65;0.80;;;;;;;12.98;83.63;100294.97;1859784;77;21080;-70
2021/06/03 05:17:41;;;;;;;1.42;0.90;;;;;;;13.03;83.56;100298.12;1857836;76;20845;-71
2021/06/03 05:20:11;;;;;;;1.55;1.10;;;;;;;13.10;83.54;100294.05;1849269;76;20929;-73
2021/06/03 05:22:38;;;;;;;0.90;0.80;;;;;;;13.13;83.24;100289.86;1849208;77;21445;-73
2021/06/03 05:25:09;;;;;;;1.12;0.82;;;;;;;13.12;83.13;100293.95;1849293;77;20960;-71
2021/06/03 05:27:36;;;;;;;3.35;0.80;;;;;;;13.12;83.09;100299.22;1849433;77;21105;-72
2021/06/03 05:30:06;;;;;;;3.80;0.82;;;;;;;13.14;83.05;100295.96;1849129;76;20873;-71
2021/06/03 05:32:33;;;;;;;1.98;1.02;;;;;;;13.17;83.06;100296.58;1849250;77;20956;-69
2021/06/03 05:35:01;;;;;;;0.85;0.70;;;;;;;13.23;83.08;100293.48;1849310;77;20885;-71
2021/06/03 05:37:29;;;;;;;0.90;0.55;;;;;;;13.26;82.84;100293.73;1849221;77;21453;-70
2021/06/03 05:39:57;;;;;;;1.05;0.72;;;;;;;13.30;82.84;100297.84;1849346;76;20881;-71
2021/06/03 05:42:24;;;;;;;0.95;0.72;;;;;;;13.35;82.73;100298.31;1849239;77;20900;-69
2021/06/03 05:44:51;;;;;;;0.72;0.72;;;;;;;13.38;82.44;100300.70;1849639;76;21427;-72
2021/06/03 05:47:18;;;;;;;3.17;1.07;;;;;;;13.41;82.49;100294.38;1849328;76;20882;-74
2021/06/03 05:49:45;;;;;;;1.75;0.70;;;;;;;13.41;82.14;100303.11;1849758;77;20865;-73
2021/06/03 05:52:12;;;;;;;1.15;0.78;;;;;;;13.42;82.26;100298.19;1849178;77;21132;-73
2021/06/03 05:54:39;;;;;;;0.47;0.40;;;;;;;13.44;81.97;100296.77;1849566;77;21378;-75
2021/06/03 05:57:07;;;;;;;4.33;0.78;;;;;;;13.43;82.20;100297.25;1849200;77;20917;-73
2021/06/03 05:59:35;;;;;;;1.02;0.50;;;;;;;13.44;82.16;100291.50;1849200;77;20916;-74
2021/06/03 06:02:05;;;;;;;0.40;0.40;;;;;;;13.44;82.19;100291.02;1849362;77;21383;-72
2021/06/03 06:07:03;;;;;;;0.88;0.70;;;;;;;13.47;82.24;100297.38;1849200;77;20878;-72
2021/06/03 06:09:32;;;;;;;0.68;0.47;;;;;;;13.51;82.19;100290.06;1849287;77;20874;-73
2021/06/03 06:11:58;;;;;;;1.47;0.68;;;;;;;13.55;82.02;100295.45;1849266;77;20874;-73
2021/06/03 06:14:26;;;;;;;1.77;1.67;;;;;;;13.57;82.10;100300.62;1849282;77;21532;-75
2021/06/03 06:16:54;;;;;;;1.42;0.60;;;;;;;13.59;81.85;100303.48;1849200;77;20845;-73
2021/06/03 06:19:22;;;;;;;1.10;0.65;;;;;;;13.61;81.75;100300.26;1837778;77;21437;-73
2021/06/03 06:21:52;;;;;;;1.30;0.70;;;;;;;13.65;81.75;100302.16;1834710;77;21064;-72
2021/06/03 06:24:19;;;;;;;0.80;0.78;;;;;;;13.65;81.66;100307.42;1835023;76;21390;-72
2021/06/03 06:26:46;;;;;;;1.00;1.00;;;;;;;13.68;81.66;100299.30;1834874;77;20914;-75
2021/06/03 06:29:15;;;;;;;0.90;0.60;;;;;;;13.70;81.43;100301.83;1834799;76;21424;-73
2021/06/03 06:31:42;;;;;;;1.27;0.85;;;;;;;13.69;81.54;100310.19;1834674;77;20902;-71
2021/06/03 06:34:09;;;;;;;3.12;2.27;;;;;;;13.69;81.54;100306.23;1835190;76;20931;-74
2021/06/03 06:36:36;;;;;;;1.35;1.25;;;;;;;13.67;81.60;100312.09;1834885;77;20978;-73
2021/06/03 06:39:04;;;;;;;1.57;0.90;;;;;;;13.67;81.62;100308.14;1834793;77;20863;-74
2021/06/03 06:41:31;;;;;;;6.97;1.40;;;;;;;13.68;81.79;100314.63;1834643;77;21112;-72
2021/06/03 06:43:58;;;;;;;1.67;0.93;;;;;;;13.73;81.67;100314.27;1834728;77;20828;-75
2021/06/03 06:46:25;;;;;;;0.88;0.70;;;;;;;13.71;81.67;100313.54;1834808;77;20890;-76
2021/06/03 06:48:53;;;;;;;0.70;0.70;;;;;;;13.72;81.75;100320.51;1834583;77;21428;-74
2021/06/03 06:51:21;;;;;;;1.15;0.75;;;;;;;13.77;81.94;100304.33;1834858;77;20907;-80
2021/06/03 06:53:48;;;;;;;3.37;1.10;;;;;;;13.79;81.68;100308.52;1834645;77;21089;-80
2021/06/03 06:56:16;;;;;;;1.32;1.17;;;;;;;13.79;81.41;100321.70;1834702;77;20985;-81
2021/06/03 06:58:43;;;;;;;1.07;0.90;;;;;;;13.78;81.53;100323.12;1835011;77;20903;-81
2021/06/03 07:01:13;;;;;;;2.02;1.10;;;;;;;13.80;81.62;100318.58;1835531;77;20918;-81
2021/06/03 07:03:40;;;;;;;1.27;1.00;;;;;;;13.84;81.67;100327.44;1838209;77;20962;-78
2021/06/03 07:06:07;;;;;;;1.45;0.90;;;;;;;13.86;81.59;100317.61;1838789;77;21072;-74
2021/06/03 07:08:35;;;;;;;0.80;0.70;;;;;;;13.87;81.35;100321.08;1837949;77;20856;-76
2021/06/03 07:11:03;;;;;;;2.67;1.17;;;;;;;13.87;81.47;100323.72;1837856;77;20860;-75
2021/06/03 07:13:31;;;;;;;1.30;1.07;;;;;;;13.86;81.48;100332.11;1838105;77;20918;-75
2021/06/03 07:15:58;;;;;;;1.20;0.80;;;;;;;13.88;81.50;100330.69;1836188;77;20962;-76
2021/06/03 07:18:25;;;;;;;2.17;1.12;;;;;;;13.90;81.39;100335.36;1806636;77;21133;-78
2021/06/03 07:20:52;;;;;;;0.78;0.72;;;;;;;13.91;81.51;100331.75;1832083;77;20873;-76
2021/06/03 07:23:21;;;;;;;1.55;1.45;;;;;;;13.91;81.42;100346.25;1832132;77;20929;-77
2021/06/03 07:25:49;;;;;;;2.10;1.17;;;;;;;13.91;81.40;100341.46;1832078;77;20985;-74
2021/06/03 07:28:15;;;;;;;3.20;1.20;;;;;;;13.93;81.54;100340.86;1832050;77;20961;-75
2021/06/03 07:30:42;;;;;;;0.72;0.68;;;;;;;13.95;81.50;100333.67;1832397;77;21382;-74
2021/06/03 07:33:09;;;;;;;1.45;1.07;;;;;;;13.96;81.59;100339.29;1831979;77;20885;-74
2021/06/03 07:35:36;;;;;;;1.55;1.15;;;;;;;13.98;81.61;100338.70;1832037;77;20905;-73
2021/06/03 07:38:04;;;;;;;1.40;1.12;;;;;;;14.00;81.54;100342.88;1832053;77;20854;-74
2021/06/03 07:40:36;;;;;;;1.67;0.70;;;;;;;14.04;81.66;100346.13;1832063;77;20926;-73
2021/06/03 07:43:07;;;;;;;3.05;0.93;;;;;;;14.05;81.45;100351.74;1832030;77;21049;-78
2021/06/03 07:45:34;;;;;;;1.47;1.02;;;;;;;14.04;81.58;100351.41;1831880;77;20870;-70
2021/06/03 07:48:02;;;;;;;3.00;1.27;;;;;;;14.07;81.56;100352.01;1832006;77;20932;-72
2021/06/03 07:50:31;;;;;;;2.37;1.30;;;;;;;14.10;81.61;100355.71;1832350;77;20945;-71
2021/06/03 07:53:00;;;;;;;1.70;1.60;;;;;;;14.12;81.50;100357.38;1832099;78;20921;-77
2021/06/03 07:55:27;;;;;;;3.00;1.37;;;;;;;14.13;81.55;100355.95;1832299;78;21101;-72
2021/06/03 07:57:58;;;;;;;3.77;2.27;;;;;;;14.12;81.79;100359.55;1832807;77;20910;-72
2021/06/03 08:00:28;;;;;;;2.08;1.40;;;;;;;14.15;81.77;100361.11;1832760;77;20914;-72
2021/06/03 08:02:55;;;;;;;4.22;1.95;;;;;;;14.16;81.79;100368.91;1832374;77;20877;-72
2021/06/03 08:05:23;;;;;;;4.47;1.42;;;;;;;14.18;81.77;100364.31;1832456;77;20877;-72
2021/06/03 08:07:50;;;;;;;3.50;1.20;;;;;;;14.18;81.72;100367.44;1832112;77;21848;-73
2021/06/03 08:10:21;;;;;;;2.12;1.15;;;;;;;14.16;81.84;100368.91;1832359;77;21446;-73
2021/06/03 08:12:50;;;;;;;3.60;1.25;;;;;;;14.19;81.99;100367.33;1832635;77;21419;-72
2021/06/03 08:15:17;;;;;;;1.45;1.02;;;;;;;14.22;82.20;100371.03;1832222;78;21466;-74
2021/06/03 08:17:45;;;;;;;2.87;1.02;;;;;;;14.26;82.11;100369.83;1832220;77;20866;-72
2021/06/03 08:20:20;;;;;;;2.12;1.02;;;;;;;14.29;82.04;100369.61;1847291;77;21062;-73
2021/06/03 08:22:47;;;;;;;1.20;1.10;;;;;;;14.29;81.99;100378.84;1849184;77;20886;-75
2021/06/03 08:25:15;;;;;;;3.72;1.10;;;;;;;14.31;82.11;100384.80;1849728;76;20877;-73
2021/06/03 08:27:42;;;;;;;1.20;1.10;;;;;;;14.34;82.13;100381.57;1849160;77;20878;-75
2021/06/03 08:30:11;;;;;;;1.95;0.90;;;;;;;14.36;82.22;100384.92;1849529;77;20913;-74
2021/06/03 08:32:38;;;;;;;3.33;1.22;;;;;;;14.39;82.28;100390.81;1849315;77;21961;-72
2021/06/03 08:35:07;;;;;;;2.12;1.20;;;;;;;14.42;82.25;100394.51;1849597;77;20885;-72
2021/06/03 08:37:36;;;;;;;1.87;1.02;;;;;;;14.46;82.30;100393.30;1849265;76;20985;-73
2021/06/03 08:40:05;;;;;;;1.52;0.93;;;;;;;14.48;82.26;100394.52;1849284;77;21335;-72
2021/06/03 08:42:32;;;;;;;2.25;1.20;;;;;;;14.50;82.35;100403.98;1849215;77;20917;-72
2021/06/03 08:44:59;;;;;;;1.40;0.72;;;;;;;14.54;82.37;100402.41;1849635;76;21125;-72
2021/06/03 08:47:29;;;;;;;1.30;1.20;;;;;;;14.58;82.37;100413.11;1849240;77;20929;-74
2021/06/03 08:49:57;;;;;;;1.25;0.70;;;;;;;14.61;82.37;100416.35;1849353;77;20928;-74
2021/06/03 08:52:25;;;;;;;2.95;1.05;;;;;;;14.67;82.38;100418.50;1849265;77;21296;-73
2021/06/03 08:54:54;;;;;;;1.10;1.00;;;;;;;14.72;82.24;100416.81;1849284;76;20924;-72
2021/06/03 08:57:21;;;;;;;2.25;1.00;;;;;;;14.76;82.29;100417.39;1849498;77;21078;-72
2021/06/03 08:59:48;;;;;;;2.02;0.75;;;;;;;14.83;82.11;100423.37;1849283;77;21489;-71
2021/06/03 09:02:16;;;;;;;1.72;1.10;;;;;;;14.87;82.10;100430.55;1849284;77;20945;-72
2021/06/03 09:04:43;;;;;;;1.77;0.68;;;;;;;14.90;82.04;100435.61;1849180;77;20916;-69
2021/06/03 09:07:33;;;;;;;2.00;1.57;;;;;;;14.95;81.87;100431.27;1849558;77;20869;-71
2021/06/03 09:10:28;;;;;;;1.17;0.82;;;;;;;14.98;81.71;100435.80;1849398;77;21130;-73
2021/06/03 09:13:19;;;;;;;1.42;1.20;;;;;;;15.01;81.65;100440.84;1849536;77;20874;-69
2021/06/03 09:15:58;;;;;;;0.88;0.62;;;;;;;15.01;81.46;100442.17;1849265;77;21479;-71
2021/06/03 09:18:35;;;;;;;0.95;0.78;;;;;;;14.99;81.40;100450.70;1849867;77;20897;-71
2021/06/03 09:21:26;;;;;;;0.78;0.75;;;;;;;14.98;81.52;100447.68;1859905;77;20906;-71
2021/06/03 09:24:02;;;;;;;2.10;1.15;;;;;;;14.97;81.56;100442.55;1860320;77;21075;-71
2021/06/03 09:26:34;;;;;;;1.15;0.47;;;;;;;15.00;81.82;100448.88;1859912;77;21416;-69
2021/06/03 09:29:07;;;;;;;1.57;1.05;;;;;;;15.05;81.97;100450.66;1849829;77;21337;-70
2021/06/03 09:31:35;;;;;;;0.98;0.98;;;;;;;15.16;81.43;100450.62;1859917;77;21356;-71
2021/06/03 09:34:07;;;;;;;1.75;0.57;;;;;;;15.16;81.43;100450.62;1860438;77;20958;-71
2021/06/03 09:36:40;;;;;;;0.50;0.50;;;;;;;15.21;81.37;100459.52;1860004;76;21164;-71
2021/06/03 09:39:24;;;;;;;1.27;0.30;;;;;;;15.24;80.72;100469.82;1859954;77;20943;-71
2021/06/03 09:42:02;;;;;;;0.82;0.23;;;;;;;15.20;80.26;100473.67;1859905;77;20911;-68
2021/06/03 09:44:38;;;;;;;1.30;0.50;;;;;;;15.20;80.26;100473.67;1860252;77;20907;-69
2021/06/03 09:47:13;;;;;;;0.40;0.40;;;;;;;15.02;79.39;100482.13;1860142;76;20864;-71
2021/06/03 09:49:56;;;;;;;0.10;0.10;;;;;;;15.02;79.39;100482.13;1860113;76;21111;-69
2021/06/03 09:52:29;;;;;;;0.13;0.13;;;;;;;14.93;79.52;100488.16;1860018;76;20863;-70
2021/06/03 09:54:59;;;;;;;0.20;0.20;;;;;;;14.84;79.55;100495.01;1859971;76;20969;-71
2021/06/03 09:57:32;;;;;;;0.80;0.50;;;;;;;14.77;79.58;100500.91;1860202;77;20954;-71
2021/06/03 10:00:13;;;;;;;0.40;0.35;;;;;;;14.68;79.75;100498.52;1860385;77;20879;-74
2021/06/03 10:02:42;;;;;;;1.42;0.30;;;;;;;14.61;80.19;100499.97;1860101;77;21988;-71
2021/06/03 10:05:18;;;;;;;1.65;0.20;;;;;;;14.56;80.23;100503.43;1860126;76;21491;-75
2021/06/03 10:11:46;;;;;;;0.20;0.20;;;;;;;14.46;80.41;100512.05;1782518;76;20932;-78
2021/06/03 10:14:17;;;;;;;0.30;0.30;;;;;;;14.38;80.71;100525.47;1741772;82;20928;-73
2021/06/03 10:16:44;;;;;;;0.20;0.20;;;;;;;14.33;80.86;100522.36;1741345;82;21309;-71
2021/06/03 10:19:28;;;;;;;0.40;0.20;;;;;;;14.27;80.95;100519.70;1741570;82;20940;-72
2021/06/03 10:22:18;;;;;;;0.10;0.10;;;;;;;14.25;81.05;100521.61;1741571;82;21446;-71
2021/06/03 10:24:53;;;;;;;0.35;0.35;;;;;;;14.22;81.23;100530.60;1741535;82;21506;-71
2021/06/03 10:27:25;;;;;;;0.57;0.28;;;;;;;14.21;81.32;100529.42;1741446;82;20976;-71
2021/06/03 10:29:52;;;;;;;0.65;0.30;;;;;;;14.22;81.57;100535.87;1741604;82;21112;-70
2021/06/03 10:32:24;;;;;;;1.12;0.35;;;;;;;14.24;81.81;100545.84;1741318;82;21462;-70
2021/06/03 10:34:53;;;;;;;1.10;0.40;;;;;;;14.32;82.04;100550.54;1741282;82;20896;-71
2021/06/03 10:37:21;;;;;;;0.75;0.37;;;;;;;14.38;81.55;100554.48;1741351;82;20884;-72
2021/06/03 10:39:49;;;;;;;1.35;0.40;;;;;;;14.37;81.38;100552.82;1741680;82;20923;-72
2021/06/03 10:42:18;;;;;;;0.33;0.30;;;;;;;14.36;81.32;100562.55;1741496;82;21150;-71
2021/06/03 10:44:46;;;;;;;0.60;0.50;;;;;;;14.38;81.54;100561.91;1741266;82;20904;-71
2021/06/03 10:47:33;;;;;;;2.15;0.50;;;;;;;14.39;81.48;100566.73;1741310;82;20912;-73
2021/06/03 10:50:03;;;;;;;1.27;0.70;;;;;;;14.40;81.46;100570.55;1722201;82;20920;-73
2021/06/03 10:52:32;;;;;;;0.62;0.30;;;;;;;14.39;81.41;100574.66;1741630;82;21013;-71
2021/06/03 10:54:59;;;;;;;1.62;0.53;;;;;;;14.41;81.45;100588.57;1741611;82;21123;-73
2021/06/03 10:57:48;;;;;;;1.07;0.40;;;;;;;14.42;81.31;100586.28;1741688;82;21400;-74
2021/06/03 11:00:38;;;;;;;1.52;0.60;;;;;;;14.42;81.33;100598.98;1742792;81;20928;-72
2021/06/03 11:03:11;;;;;;;1.45;0.30;;;;;;;14.44;81.46;100598.88;1743725;82;20885;-70
2021/06/03 11:05:42;;;;;;;0.70;0.40;;;;;;;14.47;81.36;100601.27;1743846;82;20881;-71
2021/06/03 11:08:44;;;;;;;2.50;0.50;;;;;;;14.49;81.27;100608.11;1744651;82;20956;-68
2021/06/03 11:11:27;;;;;;;3.70;0.60;;;;;;;14.54;81.09;100611.73;1737362;81;20976;-70
2021/06/03 11:14:13;;;;;;;0.50;0.30;;;;;;;14.58;81.11;100611.03;1730427;82;21090;-71
2021/06/03 11:16:46;;;;;;;0.40;0.37;;;;;;;14.62;80.99;100623.05;1730296;82;20972;-70
2021/06/03 11:19:15;;;;;;;0.95;0.33;;;;;;;14.64;81.04;100626.41;1730470;82;20968;-71
2021/06/03 11:21:47;;;;;;;2.60;0.80;;;;;;;14.65;80.89;100630.26;1730309;82;21135;-71
2021/06/03 11:24:38;;;;;;;0.70;0.50;;;;;;;14.66;80.91;100633.25;1730194;83;20841;-70
2021/06/03 11:27:16;;;;;;;0.70;0.47;;;;;;;14.68;80.70;100630.50;1730376;82;20921;-70
2021/06/03 11:29:54;;;;;;;1.15;0.50;;;;;;;14.67;80.53;100639.36;1730256;82;21067;-70
2021/06/03 11:32:29;;;;;;;1.77;0.50;;;;;;;14.66;80.43;100634.56;1730422;82;20886;-69
2021/06/03 11:35:01;;;;;;;1.57;0.57;;;;;;;14.66;80.41;100644.29;1730434;82;21126;-70
2021/06/03 11:37:43;;;;;;;1.15;0.60;;;;;;;14.67;80.64;100652.55;1730283;83;20904;-70
2021/06/03 11:40:19;;;;;;;1.17;0.73;;;;;;;14.70;80.75;100653.17;1730687;82;20988;-70
2021/06/03 11:43:09;;;;;;;3.12;0.82;;;;;;;14.72;80.72;100651.75;1730403;82;20889;-69
2021/06/03 11:45:44;;;;;;;1.20;0.70;;;;;;;14.76;80.63;100655.80;1730471;83;20877;-70